Terminal Aerodrome Forecast
Issued by NWS

Home | Current Version | Previous Version | Text Only | Print | Product List | Glossary Off
Versions: 1 2 3 4 5 6 7 8 9 10 11 12 13 14 15 16 17 18 19 20

783
FTUS41 KCLE 271128
TAFFDY
TAF
KFDY 271128Z 2712/2812 05010KT P6SM OVC012
     FM271400 07015G22KT P6SM SKC
     FM280400 06012KT P6SM VCSH BKN040=

USA.gov is the U.S. government's official web portal to all federal, state and local government web resources and services.